sensor_id;sensor_type;location;lat;lon;timestamp;pressure;altitude;pressure_sealevel;temperature;humidity
44441;BME280;30146;52.268;20.944;2022-10-22T00:00:19;100086.07;;;9.71;67.34
44441;BME280;30146;52.268;20.944;2022-10-22T00:02:50;100087.56;;;9.74;67.30
44441;BME280;30146;52.268;20.944;2022-10-22T00:05:21;100093.89;;;9.74;67.01
44441;BME280;30146;52.268;20.944;2022-10-22T00:07:52;100091.34;;;9.73;67.28
44441;BME280;30146;52.268;20.944;2022-10-22T00:10:23;100093.39;;;9.72;67.21
44441;BME280;30146;52.268;20.944;2022-10-22T00:12:54;100089.64;;;9.73;67.31
44441;BME280;30146;52.268;20.944;2022-10-22T00:15:25;100089.27;;;9.74;67.29
44441;BME280;30146;52.268;20.944;2022-10-22T00:17:56;100080.38;;;9.77;67.35
44441;BME280;30146;52.268;20.944;2022-10-22T00:20:27;100072.16;;;9.79;67.45
44441;BME280;30146;52.268;20.944;2022-10-22T00:22:57;100072.30;;;9.81;67.54
44441;BME280;30146;52.268;20.944;2022-10-22T00:25:28;100074.69;;;9.82;67.39
44441;BME280;30146;52.268;20.944;2022-10-22T00:27:59;100076.91;;;9.81;67.28
44441;BME280;30146;52.268;20.944;2022-10-22T00:30:31;100078.49;;;9.77;67.39
44441;BME280;30146;52.268;20.944;2022-10-22T00:33:02;100070.65;;;9.77;67.59
44441;BME280;30146;52.268;20.944;2022-10-22T00:35:34;100067.25;;;9.77;67.60
44441;BME280;30146;52.268;20.944;2022-10-22T00:38:05;100064.14;;;9.78;67.66
44441;BME280;30146;52.268;20.944;2022-10-22T00:40:36;100061.23;;;9.79;67.84
44441;BME280;30146;52.268;20.944;2022-10-22T00:43:09;100055.94;;;9.80;67.70
44441;BME280;30146;52.268;20.944;2022-10-22T00:45:41;100052.70;;;9.80;67.81
44441;BME280;30146;52.268;20.944;2022-10-22T00:48:14;100046.71;;;9.79;67.72
44441;BME280;30146;52.268;20.944;2022-10-22T00:50:48;100046.39;;;9.79;67.92
44441;BME280;30146;52.268;20.944;2022-10-22T00:53:22;100045.36;;;9.79;67.88
44441;BME280;30146;52.268;20.944;2022-10-22T00:55:54;100045.18;;;9.80;68.10
44441;BME280;30146;52.268;20.944;2022-10-22T00:58:28;100048.40;;;9.81;68.11
44441;BME280;30146;52.268;20.944;2022-10-22T01:01:00;100048.23;;;9.82;68.07
44441;BME280;30146;52.268;20.944;2022-10-22T01:03:31;100045.82;;;9.85;68.34
44441;BME280;30146;52.268;20.944;2022-10-22T01:06:04;100040.48;;;9.87;68.32
44441;BME280;30146;52.268;20.944;2022-10-22T01:08:40;100032.11;;;9.89;68.38
44441;BME280;30146;52.268;20.944;2022-10-22T01:11:17;100029.66;;;9.92;68.47
44441;BME280;30146;52.268;20.944;2022-10-22T01:13:56;100026.39;;;9.95;68.38
44441;BME280;30146;52.268;20.944;2022-10-22T01:16:36;100028.91;;;9.99;68.51
44441;BME280;30146;52.268;20.944;2022-10-22T01:19:27;100035.54;;;10.01;68.30
44441;BME280;30146;52.268;20.944;2022-10-22T01:22:06;100034.70;;;10.01;68.33
44441;BME280;30146;52.268;20.944;2022-10-22T01:24:48;100035.20;;;10.01;68.34
44441;BME280;30146;52.268;20.944;2022-10-22T01:27:28;100025.28;;;10.03;68.46
44441;BME280;30146;52.268;20.944;2022-10-22T01:30:03;100021.66;;;10.05;68.59
44441;BME280;30146;52.268;20.944;2022-10-22T01:32:34;100022.32;;;10.07;68.48
44441;BME280;30146;52.268;20.944;2022-10-22T01:35:09;100017.20;;;10.07;68.38
44441;BME280;30146;52.268;20.944;2022-10-22T01:37:45;100014.30;;;10.06;68.59
44441;BME280;30146;52.268;20.944;2022-10-22T01:40:17;100008.02;;;10.05;68.37
44441;BME280;30146;52.268;20.944;2022-10-22T01:42:57;100010.39;;;10.05;68.65
44441;BME280;30146;52.268;20.944;2022-10-22T01:45:31;100010.23;;;10.06;68.84
44441;BME280;30146;52.268;20.944;2022-10-22T01:48:09;100011.06;;;10.07;68.78
44441;BME280;30146;52.268;20.944;2022-10-22T01:50:57;100008.63;;;10.09;68.82
44441;BME280;30146;52.268;20.944;2022-10-22T01:53:38;100014.75;;;10.12;68.81
44441;BME280;30146;52.268;20.944;2022-10-22T01:56:28;100018.82;;;10.14;68.79
44441;BME280;30146;52.268;20.944;2022-10-22T01:59:10;100023.25;;;10.15;68.83
44441;BME280;30146;52.268;20.944;2022-10-22T02:01:52;100019.15;;;10.15;68.82
44441;BME280;30146;52.268;20.944;2022-10-22T02:04:32;100016.55;;;10.17;69.10
44441;BME280;30146;52.268;20.944;2022-10-22T02:07:07;100012.11;;;10.19;69.24
44441;BME280;30146;52.268;20.944;2022-10-22T02:09:41;100007.81;;;10.20;69.18
44441;BME280;30146;52.268;20.944;2022-10-22T02:12:14;100003.55;;;10.19;69.19
44441;BME280;30146;52.268;20.944;2022-10-22T02:14:47;100001.34;;;10.19;69.33
44441;BME280;30146;52.268;20.944;2022-10-22T02:17:20;100000.80;;;10.20;69.46
44441;BME280;30146;52.268;20.944;2022-10-22T02:19:55;100001.14;;;10.21;69.45
44441;BME280;30146;52.268;20.944;2022-10-22T02:22:27;99995.50;;;10.23;69.60
44441;BME280;30146;52.268;20.944;2022-10-22T02:24:59;99999.93;;;10.22;69.68
44441;BME280;30146;52.268;20.944;2022-10-22T02:27:32;100004.36;;;10.23;69.90
44441;BME280;30146;52.268;20.944;2022-10-22T02:30:09;100000.96;;;10.22;69.81
44441;BME280;30146;52.268;20.944;2022-10-22T02:32:44;99997.89;;;10.22;69.74
44441;BME280;30146;52.268;20.944;2022-10-22T02:35:21;100002.13;;;10.24;69.89
44441;BME280;30146;52.268;20.944;2022-10-22T02:37:54;100005.36;;;10.25;69.94
44441;BME280;30146;52.268;20.944;2022-10-22T02:40:26;100006.91;;;10.23;69.82
44441;BME280;30146;52.268;20.944;2022-10-22T02:42:58;100007.80;;;10.22;69.95
44441;BME280;30146;52.268;20.944;2022-10-22T02:45:29;100008.31;;;10.20;69.95
44441;BME280;30146;52.268;20.944;2022-10-22T02:48:01;100006.81;;;10.18;69.96
44441;BME280;30146;52.268;20.944;2022-10-22T02:50:32;100006.63;;;10.19;70.07
44441;BME280;30146;52.268;20.944;2022-10-22T02:53:03;100003.55;;;10.19;70.30
44441;BME280;30146;52.268;20.944;2022-10-22T02:55:34;100004.77;;;10.18;70.28
44441;BME280;30146;52.268;20.944;2022-10-22T02:58:04;100004.23;;;10.19;70.41
44441;BME280;30146;52.268;20.944;2022-10-22T03:00:35;100006.77;;;10.21;70.57
44441;BME280;30146;52.268;20.944;2022-10-22T03:03:06;100007.98;;;10.22;70.51
44441;BME280;30146;52.268;20.944;2022-10-22T03:05:38;100006.42;;;10.22;70.40
44441;BME280;30146;52.268;20.944;2022-10-22T03:08:09;100004.58;;;10.19;70.35
44441;BME280;30146;52.268;20.944;2022-10-22T03:10:40;100000.66;;;10.19;70.51
44441;BME280;30146;52.268;20.944;2022-10-22T03:13:11;99998.96;;;10.18;70.41
44441;BME280;30146;52.268;20.944;2022-10-22T03:15:42;99996.22;;;10.19;70.78
44441;BME280;30146;52.268;20.944;2022-10-22T03:18:13;99991.27;;;10.19;70.68
44441;BME280;30146;52.268;20.944;2022-10-22T03:20:44;99990.73;;;10.19;71.00
44441;BME280;30146;52.268;20.944;2022-10-22T03:23:17;99985.94;;;10.22;70.81
44441;BME280;30146;52.268;20.944;2022-10-22T03:25:50;99989.16;;;10.22;70.89
44441;BME280;30146;52.268;20.944;2022-10-22T03:28:20;99989.84;;;10.23;70.89
44441;BME280;30146;52.268;20.944;2022-10-22T03:30:51;99986.76;;;10.23;70.82
44441;BME280;30146;52.268;20.944;2022-10-22T03:33:22;99986.92;;;10.24;71.06
44441;BME280;30146;52.268;20.944;2022-10-22T03:35:53;99988.59;;;10.27;71.30
44441;BME280;30146;52.268;20.944;2022-10-22T03:38:25;99989.59;;;10.29;71.20
44441;BME280;30146;52.268;20.944;2022-10-22T03:40:56;99992.30;;;10.30;71.17
44441;BME280;30146;52.268;20.944;2022-10-22T03:43:27;99997.95;;;10.31;71.21
44441;BME280;30146;52.268;20.944;2022-10-22T03:45:58;100002.39;;;10.29;71.01
44441;BME280;30146;52.268;20.944;2022-10-22T03:48:29;100015.89;;;10.29;71.06
44441;BME280;30146;52.268;20.944;2022-10-22T03:51:00;100014.17;;;10.30;71.34
44441;BME280;30146;52.268;20.944;2022-10-22T03:53:31;100017.76;;;10.30;71.40
44441;BME280;30146;52.268;20.944;2022-10-22T03:56:04;100006.31;;;10.30;71.33
44441;BME280;30146;52.268;20.944;2022-10-22T03:58:37;99997.77;;;10.32;71.29
44441;BME280;30146;52.268;20.944;2022-10-22T04:01:10;99985.14;;;10.31;71.35
44441;BME280;30146;52.268;20.944;2022-10-22T04:03:41;99985.81;;;10.29;71.23
44441;BME280;30146;52.268;20.944;2022-10-22T04:06:13;99991.83;;;10.28;71.47
44441;BME280;30146;52.268;20.944;2022-10-22T04:08:45;99998.48;;;10.28;71.51
44441;BME280;30146;52.268;20.944;2022-10-22T04:11:16;100004.98;;;10.28;71.48
44441;BME280;30146;52.268;20.944;2022-10-22T04:13:47;100007.02;;;10.29;71.67
44441;BME280;30146;52.268;20.944;2022-10-22T04:16:20;99997.78;;;10.29;71.81
44441;BME280;30146;52.268;20.944;2022-10-22T04:18:56;99988.38;;;10.29;71.66
44441;BME280;30146;52.268;20.944;2022-10-22T04:21:27;99989.92;;;10.30;71.89
44441;BME280;30146;52.268;20.944;2022-10-22T04:23:58;99989.24;;;10.31;71.89
44441;BME280;30146;52.268;20.944;2022-10-22T04:26:29;99981.88;;;10.33;71.94
44441;BME280;30146;52.268;20.944;2022-10-22T04:29:00;99972.46;;;10.34;72.00
44441;BME280;30146;52.268;20.944;2022-10-22T04:31:31;99962.38;;;10.34;71.84
44441;BME280;30146;52.268;20.944;2022-10-22T04:34:01;99957.77;;;10.34;71.97
44441;BME280;30146;52.268;20.944;2022-10-22T04:36:34;99960.45;;;10.37;72.29
44441;BME280;30146;52.268;20.944;2022-10-22T04:39:05;99960.95;;;10.38;72.27
44441;BME280;30146;52.268;20.944;2022-10-22T04:41:37;99958.02;;;10.40;72.25
44441;BME280;30146;52.268;20.944;2022-10-22T04:44:08;99954.41;;;10.42;72.22
44441;BME280;30146;52.268;20.944;2022-10-22T04:46:45;99942.95;;;10.42;72.24
44441;BME280;30146;52.268;20.944;2022-10-22T04:49:15;99940.59;;;10.40;72.08
44441;BME280;30146;52.268;20.944;2022-10-22T04:51:47;99943.32;;;10.40;72.12
44441;BME280;30146;52.268;20.944;2022-10-22T04:54:18;99947.58;;;10.42;72.44
44441;BME280;30146;52.268;20.944;2022-10-22T04:56:49;99946.89;;;10.42;72.37
44441;BME280;30146;52.268;20.944;2022-10-22T04:59:20;99951.99;;;10.43;72.54
44441;BME280;30146;52.268;20.944;2022-10-22T05:01:51;99953.67;;;10.44;72.64
44441;BME280;30146;52.268;20.944;2022-10-22T05:04:22;99954.88;;;10.45;72.44
44441;BME280;30146;52.268;20.944;2022-10-22T05:06:53;99957.23;;;10.48;72.38
44441;BME280;30146;52.268;20.944;2022-10-22T05:09:24;99953.07;;;10.51;72.51
44441;BME280;30146;52.268;20.944;2022-10-22T05:11:55;99955.42;;;10.53;72.54
44441;BME280;30146;52.268;20.944;2022-10-22T05:14:26;99958.98;;;10.55;72.48
44441;BME280;30146;52.268;20.944;2022-10-22T05:16:57;99956.23;;;10.56;72.54
44441;BME280;30146;52.268;20.944;2022-10-22T05:19:29;99960.67;;;10.56;72.54
44441;BME280;30146;52.268;20.944;2022-10-22T05:22:03;99960.66;;;10.57;72.51
44441;BME280;30146;52.268;20.944;2022-10-22T05:24:34;99967.63;;;10.59;72.55
44441;BME280;30146;52.268;20.944;2022-10-22T05:27:06;99967.95;;;10.62;72.79
44441;BME280;30146;52.268;20.944;2022-10-22T05:29:37;99972.88;;;10.64;72.72
44441;BME280;30146;52.268;20.944;2022-10-22T05:32:08;99973.38;;;10.65;72.77
44441;BME280;30146;52.268;20.944;2022-10-22T05:34:39;99975.02;;;10.68;72.85
44441;BME280;30146;52.268;20.944;2022-10-22T05:37:10;99971.08;;;10.70;72.81
44441;BME280;30146;52.268;20.944;2022-10-22T05:39:41;99966.77;;;10.71;72.77
44441;BME280;30146;52.268;20.944;2022-10-22T05:42:12;99967.61;;;10.72;72.67
44441;BME280;30146;52.268;20.944;2022-10-22T05:44:43;99963.98;;;10.75;72.77
44441;BME280;30146;52.268;20.944;2022-10-22T05:47:14;99968.42;;;10.75;72.65
44441;BME280;30146;52.268;20.944;2022-10-22T05:49:45;99967.89;;;10.76;72.60
44441;BME280;30146;52.268;20.944;2022-10-22T05:52:16;99962.40;;;10.77;72.65
44441;BME280;30146;52.268;20.944;2022-10-22T05:54:47;99963.69;;;10.82;72.60
44441;BME280;30146;52.268;20.944;2022-10-22T05:57:18;99963.30;;;10.84;72.69
44441;BME280;30146;52.268;20.944;2022-10-22T05:59:49;99962.55;;;10.89;72.68
44441;BME280;30146;52.268;20.944;2022-10-22T06:02:20;99955.81;;;10.93;72.51
44441;BME280;30146;52.268;20.944;2022-10-22T06:04:51;99949.98;;;10.93;72.40
44441;BME280;30146;52.268;20.944;2022-10-22T06:07:22;99955.23;;;10.96;72.50
44441;BME280;30146;52.268;20.944;2022-10-22T06:09:53;99964.40;;;11.01;72.47
44441;BME280;30146;52.268;20.944;2022-10-22T06:12:24;99968.95;;;11.05;72.59
44441;BME280;30146;52.268;20.944;2022-10-22T06:15:02;99969.06;;;11.08;72.39
44441;BME280;30146;52.268;20.944;2022-10-22T06:17:33;99970.71;;;11.11;72.24
44441;BME280;30146;52.268;20.944;2022-10-22T06:20:05;99970.69;;;11.13;72.26
44441;BME280;30146;52.268;20.944;2022-10-22T06:22:36;99969.95;;;11.15;72.31
44441;BME280;30146;52.268;20.944;2022-10-22T06:25:09;99969.90;;;11.19;72.50
44441;BME280;30146;52.268;20.944;2022-10-22T06:27:41;99969.35;;;11.21;72.24
44441;BME280;30146;52.268;20.944;2022-10-22T06:30:13;99978.54;;;11.23;72.12
44441;BME280;30146;52.268;20.944;2022-10-22T06:32:44;99985.35;;;11.26;72.20
44441;BME280;30146;52.268;20.944;2022-10-22T06:35:15;99980.69;;;11.28;72.34
44441;BME280;30146;52.268;20.944;2022-10-22T06:37:46;99980.64;;;11.31;72.23
44441;BME280;30146;52.268;20.944;2022-10-22T06:40:17;99984.34;;;11.33;72.34
44441;BME280;30146;52.268;20.944;2022-10-22T06:42:48;99991.30;;;11.37;72.41
44441;BME280;30146;52.268;20.944;2022-10-22T06:45:19;99985.11;;;11.39;72.41
44441;BME280;30146;52.268;20.944;2022-10-22T06:47:50;99981.30;;;11.41;72.15
44441;BME280;30146;52.268;20.944;2022-10-22T06:50:22;99990.15;;;11.44;72.25
44441;BME280;30146;52.268;20.944;2022-10-22T06:52:53;99992.35;;;11.45;72.22
44441;BME280;30146;52.268;20.944;2022-10-22T06:55:24;99991.33;;;11.46;71.99
44441;BME280;30146;52.268;20.944;2022-10-22T06:57:56;99994.69;;;11.48;72.12
44441;BME280;30146;52.268;20.944;2022-10-22T07:00:27;99995.53;;;11.49;71.96
44441;BME280;30146;52.268;20.944;2022-10-22T07:03:00;99989.19;;;11.49;71.81
44441;BME280;30146;52.268;20.944;2022-10-22T07:05:34;99990.05;;;11.48;71.68
44441;BME280;30146;52.268;20.944;2022-10-22T07:08:05;100002.04;;;11.49;71.84
44441;BME280;30146;52.268;20.944;2022-10-22T07:10:36;100013.68;;;11.48;71.77
44441;BME280;30146;52.268;20.944;2022-10-22T07:13:08;100027.94;;;11.46;71.90
44441;BME280;30146;52.268;20.944;2022-10-22T07:15:39;100019.54;;;11.46;71.86
44441;BME280;30146;52.268;20.944;2022-10-22T07:18:10;100023.66;;;11.46;71.96
44441;BME280;30146;52.268;20.944;2022-10-22T07:20:41;100022.98;;;11.46;72.00
44441;BME280;30146;52.268;20.944;2022-10-22T07:23:12;100026.45;;;11.43;71.88
44441;BME280;30146;52.268;20.944;2022-10-22T07:25:43;100031.39;;;11.44;71.93
44441;BME280;30146;52.268;20.944;2022-10-22T07:28:14;100029.83;;;11.45;72.11
44441;BME280;30146;52.268;20.944;2022-10-22T07:30:45;100035.80;;;11.46;72.05
44441;BME280;30146;52.268;20.944;2022-10-22T07:33:16;100033.91;;;11.46;72.11
44441;BME280;30146;52.268;20.944;2022-10-22T07:35:47;100020.70;;;11.49;72.07
44441;BME280;30146;52.268;20.944;2022-10-22T07:38:18;100018.42;;;11.51;72.24
44441;BME280;30146;52.268;20.944;2022-10-22T07:40:49;100014.08;;;11.54;72.32
44441;BME280;30146;52.268;20.944;2022-10-22T07:43:20;100008.71;;;11.58;72.30
44441;BME280;30146;52.268;20.944;2022-10-22T07:45:51;100008.30;;;11.61;72.37
44441;BME280;30146;52.268;20.944;2022-10-22T07:48:24;100019.18;;;11.66;72.56
44441;BME280;30146;52.268;20.944;2022-10-22T07:50:55;100015.50;;;11.70;72.52
44441;BME280;30146;52.268;20.944;2022-10-22T07:53:27;100006.02;;;11.73;72.43
44441;BME280;30146;52.268;20.944;2022-10-22T07:55:58;100010.95;;;11.75;72.28
44441;BME280;30146;52.268;20.944;2022-10-22T07:58:30;100014.66;;;11.78;72.21
44441;BME280;30146;52.268;20.944;2022-10-22T08:01:01;100011.71;;;11.80;72.38
44441;BME280;30146;52.268;20.944;2022-10-22T08:03:34;100022.64;;;11.82;72.16
44441;BME280;30146;52.268;20.944;2022-10-22T08:06:06;100024.83;;;11.84;72.30
44441;BME280;30146;52.268;20.944;2022-10-22T08:08:37;100025.31;;;11.85;72.37
44441;BME280;30146;52.268;20.944;2022-10-22T08:11:10;100022.19;;;11.87;72.26
44441;BME280;30146;52.268;20.944;2022-10-22T08:13:41;100023.20;;;11.89;72.22
44441;BME280;30146;52.268;20.944;2022-10-22T08:16:14;100022.83;;;11.91;72.09
44441;BME280;30146;52.268;20.944;2022-10-22T08:18:45;100030.11;;;11.95;72.38
44441;BME280;30146;52.268;20.944;2022-10-22T08:21:16;100032.42;;;11.99;72.43
44441;BME280;30146;52.268;20.944;2022-10-22T08:23:47;100033.88;;;12.04;72.35
44441;BME280;30146;52.268;20.944;2022-10-22T08:26:18;100034.99;;;12.07;72.35
44441;BME280;30146;52.268;20.944;2022-10-22T08:28:49;100039.23;;;12.10;72.24
44441;BME280;30146;52.268;20.944;2022-10-22T08:31:20;100041.08;;;12.12;72.34
44441;BME280;30146;52.268;20.944;2022-10-22T08:33:51;100042.24;;;12.13;72.23
44441;BME280;30146;52.268;20.944;2022-10-22T08:36:22;100039.16;;;12.13;72.04
44441;BME280;30146;52.268;20.944;2022-10-22T08:38:53;100037.10;;;12.13;71.99
44441;BME280;30146;52.268;20.944;2022-10-22T08:41:24;100037.44;;;12.14;71.99
44441;BME280;30146;52.268;20.944;2022-10-22T08:44:09;100034.16;;;12.15;71.91
44441;BME280;30146;52.268;20.944;2022-10-22T08:46:58;100032.23;;;12.17;72.03
44441;BME280;30146;52.268;20.944;2022-10-22T08:49:34;100033.69;;;12.21;71.93
44441;BME280;30146;52.268;20.944;2022-10-22T08:52:13;100031.70;;;12.26;72.14
44441;BME280;30146;52.268;20.944;2022-10-22T08:54:51;100032.44;;;12.31;72.20
44441;BME280;30146;52.268;20.944;2022-10-22T08:57:41;100029.77;;;12.37;72.13
44441;BME280;30146;52.268;20.944;2022-10-22T09:00:23;100032.94;;;12.40;72.13
44441;BME280;30146;52.268;20.944;2022-10-22T09:03:06;100041.24;;;12.44;71.98
44441;BME280;30146;52.268;20.944;2022-10-22T09:05:47;100044.29;;;12.47;71.90
44441;BME280;30146;52.268;20.944;2022-10-22T09:08:25;100048.04;;;12.47;71.86
44441;BME280;30146;52.268;20.944;2022-10-22T09:11:00;100052.27;;;12.50;71.99
44441;BME280;30146;52.268;20.944;2022-10-22T09:13:32;100061.62;;;12.54;72.13
44441;BME280;30146;52.268;20.944;2022-10-22T09:16:14;100062.90;;;12.57;72.11
44441;BME280;30146;52.268;20.944;2022-10-22T09:18:55;100062.33;;;12.60;72.10
44441;BME280;30146;52.268;20.944;2022-10-22T09:21:40;100065.33;;;12.64;72.07
44441;BME280;30146;52.268;20.944;2022-10-22T09:24:16;100063.93;;;12.65;72.01
44441;BME280;30146;52.268;20.944;2022-10-22T09:26:51;100062.16;;;12.68;72.10
44441;BME280;30146;52.268;20.944;2022-10-22T09:29:27;100060.05;;;12.70;72.15
44441;BME280;30146;52.268;20.944;2022-10-22T09:32:01;100058.41;;;12.74;72.16
44441;BME280;30146;52.268;20.944;2022-10-22T09:34:33;100051.45;;;12.78;72.27
44441;BME280;30146;52.268;20.944;2022-10-22T09:37:06;100050.90;;;12.80;72.10
44441;BME280;30146;52.268;20.944;2022-10-22T09:39:42;100048.14;;;12.81;71.93
44441;BME280;30146;52.268;20.944;2022-10-22T09:42:15;100040.95;;;12.80;71.84
44441;BME280;30146;52.268;20.944;2022-10-22T09:44:53;100041.46;;;12.80;71.91
44441;BME280;30146;52.268;20.944;2022-10-22T09:47:33;100041.47;;;12.80;72.03
44441;BME280;30146;52.268;20.944;2022-10-22T09:50:34;100040.02;;;12.84;72.20
44441;BME280;30146;52.268;20.944;2022-10-22T09:53:14;100037.33;;;12.88;72.28
44441;BME280;30146;52.268;20.944;2022-10-22T09:55:52;100037.26;;;12.91;72.21
44441;BME280;30146;52.268;20.944;2022-10-22T09:58:28;100038.20;;;12.95;72.19
44441;BME280;30146;52.268;20.944;2022-10-22T10:01:01;100030.75;;;12.97;72.16
44441;BME280;30146;52.268;20.944;2022-10-22T10:03:32;100037.54;;;13.01;72.07
44441;BME280;30146;52.268;20.944;2022-10-22T10:06:04;100040.85;;;13.06;72.21
44441;BME280;30146;52.268;20.944;2022-10-22T10:08:35;100041.27;;;13.09;72.18
44441;BME280;30146;52.268;20.944;2022-10-22T10:11:11;100045.11;;;13.14;72.19
44441;BME280;30146;52.268;20.944;2022-10-22T10:13:55;100041.23;;;13.18;72.17
44441;BME280;30146;52.268;20.944;2022-10-22T10:16:36;100036.83;;;13.23;72.22
44441;BME280;30146;52.268;20.944;2022-10-22T10:19:18;100036.38;;;13.27;72.31
44441;BME280;30146;52.268;20.944;2022-10-22T10:22:04;100042.52;;;13.29;71.97
44441;BME280;30146;52.268;20.944;2022-10-22T10:24:49;100049.01;;;13.31;72.00
44441;BME280;30146;52.268;20.944;2022-10-22T10:27:30;100054.49;;;13.32;71.79
44441;BME280;30146;52.268;20.944;2022-10-22T10:30:08;100055.85;;;13.32;71.80
44441;BME280;30146;52.268;20.944;2022-10-22T10:32:54;100062.90;;;13.32;71.81
44441;BME280;30146;52.268;20.944;2022-10-22T10:35:29;100055.83;;;13.33;71.86
44441;BME280;30146;52.268;20.944;2022-10-22T10:38:18;100052.58;;;13.33;71.86
44441;BME280;30146;52.268;20.944;2022-10-22T10:40:58;100046.70;;;13.34;71.82
44441;BME280;30146;52.268;20.944;2022-10-22T10:43:40;100052.98;;;13.36;71.85
44441;BME280;30146;52.268;20.944;2022-10-22T10:46:18;100063.12;;;13.37;71.87
44441;BME280;30146;52.268;20.944;2022-10-22T10:48:57;100065.52;;;13.37;71.89
44441;BME280;30146;52.268;20.944;2022-10-22T10:51:39;100063.47;;;13.36;71.99
44441;BME280;30146;52.268;20.944;2022-10-22T10:54:26;100067.93;;;13.37;71.91
44441;BME280;30146;52.268;20.944;2022-10-22T10:57:05;100066.71;;;13.37;71.90
44441;BME280;30146;52.268;20.944;2022-10-22T10:59:48;100070.20;;;13.35;71.77
44441;BME280;30146;52.268;20.944;2022-10-22T11:05:33;100063.66;;;13.35;71.97
44441;BME280;30146;52.268;20.944;2022-10-22T11:08:12;100062.16;;;13.34;71.92
44441;BME280;30146;52.268;20.944;2022-10-22T11:10:47;100056.86;;;13.33;71.90
44441;BME280;30146;52.268;20.944;2022-10-22T11:13:25;100051.76;;;13.31;71.91
44441;BME280;30146;52.268;20.944;2022-10-22T11:16:02;100043.85;;;13.31;72.03
44441;BME280;30146;52.268;20.944;2022-10-22T11:18:37;100039.55;;;13.32;72.04
44441;BME280;30146;52.268;20.944;2022-10-22T11:21:17;100039.52;;;13.33;72.14
44441;BME280;30146;52.268;20.944;2022-10-22T11:23:55;100036.90;;;13.35;72.18
44441;BME280;30146;52.268;20.944;2022-10-22T11:26:36;100034.66;;;13.35;72.10
44441;BME280;30146;52.268;20.944;2022-10-22T11:29:12;100036.52;;;13.36;72.08
44441;BME280;30146;52.268;20.944;2022-10-22T11:31:44;100037.39;;;13.36;72.04
44441;BME280;30146;52.268;20.944;2022-10-22T11:34:19;100033.77;;;13.37;72.03
44441;BME280;30146;52.268;20.944;2022-10-22T11:37:08;100036.98;;;13.38;72.02
44441;BME280;30146;52.268;20.944;2022-10-22T11:39:44;100034.05;;;13.38;72.05
44441;BME280;30146;52.268;20.944;2022-10-22T11:42:20;100029.91;;;13.40;72.21
44441;BME280;30146;52.268;20.944;2022-10-22T11:45:01;100032.96;;;13.41;72.18
44441;BME280;30146;52.268;20.944;2022-10-22T11:47:37;100028.45;;;13.43;72.22
44441;BME280;30146;52.268;20.944;2022-10-22T11:50:24;100032.37;;;13.44;72.20
44441;BME280;30146;52.268;20.944;2022-10-22T11:53:02;100030.45;;;13.45;72.26
44441;BME280;30146;52.268;20.944;2022-10-22T11:55:43;100022.68;;;13.46;72.36
44441;BME280;30146;52.268;20.944;2022-10-22T11:58:38;100027.30;;;13.47;72.34
44441;BME280;30146;52.268;20.944;2022-10-22T12:01:23;100025.36;;;13.49;72.29
44441;BME280;30146;52.268;20.944;2022-10-22T12:04:18;100020.83;;;13.52;72.43
44441;BME280;30146;52.268;20.944;2022-10-22T12:07:00;100021.10;;;13.55;72.35
44441;BME280;30146;52.268;20.944;2022-10-22T12:09:32;100013.44;;;13.58;72.44
44441;BME280;30146;52.268;20.944;2022-10-22T12:12:15;100014.55;;;13.62;72.55
44441;BME280;30146;52.268;20.944;2022-10-22T12:14:55;100012.75;;;13.65;72.41
44441;BME280;30146;52.268;20.944;2022-10-22T12:17:29;100010.27;;;13.67;72.37
44441;BME280;30146;52.268;20.944;2022-10-22T12:20:06;100007.95;;;13.71;72.42
44441;BME280;30146;52.268;20.944;2022-10-22T12:22:38;100005.25;;;13.75;72.43
44441;BME280;30146;52.268;20.944;2022-10-22T12:25:18;100002.91;;;13.79;72.49
44441;BME280;30146;52.268;20.944;2022-10-22T12:27:52;99999.56;;;13.82;72.42
44441;BME280;30146;52.268;20.944;2022-10-22T12:30:27;99999.64;;;13.85;72.40
44441;BME280;30146;52.268;20.944;2022-10-22T12:33:00;99998.70;;;13.88;72.30
44441;BME280;30146;52.268;20.944;2022-10-22T12:35:33;99996.38;;;13.92;72.35
44441;BME280;30146;52.268;20.944;2022-10-22T12:38:13;99997.02;;;13.93;72.14
44441;BME280;30146;52.268;20.944;2022-10-22T12:40:45;99995.98;;;13.93;72.05
44441;BME280;30146;52.268;20.944;2022-10-22T12:43:19;99997.64;;;13.95;72.13
44441;BME280;30146;52.268;20.944;2022-10-22T12:45:53;99992.64;;;13.96;72.08
44441;BME280;30146;52.268;20.944;2022-10-22T12:48:29;99992.81;;;13.96;71.99
44441;BME280;30146;52.268;20.944;2022-10-22T12:51:04;99993.51;;;13.96;71.88
44441;BME280;30146;52.268;20.944;2022-10-22T12:53:38;99994.40;;;13.94;71.83
44441;BME280;30146;52.268;20.944;2022-10-22T12:56:14;99991.66;;;13.94;71.89
44441;BME280;30146;52.268;20.944;2022-10-22T12:58:48;99989.95;;;13.93;71.96
44441;BME280;30146;52.268;20.944;2022-10-22T13:01:23;99996.00;;;13.92;71.95
44441;BME280;30146;52.268;20.944;2022-10-22T13:04:18;99998.45;;;13.91;71.87
44441;BME280;30146;52.268;20.944;2022-10-22T13:06:51;99990.05;;;13.90;72.07
44441;BME280;30146;52.268;20.944;2022-10-22T13:09:24;100002.94;;;13.90;72.06
44441;BME280;30146;52.268;20.944;2022-10-22T13:12:01;100012.73;;;13.90;72.07
44441;BME280;30146;52.268;20.944;2022-10-22T13:14:35;100015.14;;;13.90;71.99
44441;BME280;30146;52.268;20.944;2022-10-22T13:17:10;100015.32;;;13.90;72.14
44441;BME280;30146;52.268;20.944;2022-10-22T13:19:45;100016.15;;;13.91;72.19
44441;BME280;30146;52.268;20.944;2022-10-22T13:22:33;100021.81;;;13.92;72.27
44441;BME280;30146;52.268;20.944;2022-10-22T13:25:23;100024.40;;;13.91;72.06